Time;durP1;ratioP1;P1;durP2;ratioP2;P2;SDS_P1;SDS_P2;PMS_P1;PMS_P2;Temp;Humidity;BMP_temperature;BMP_pressure;BME280_temperature;BME280_humidity;BME280_pressure;Samples;Min_cycle;Max_cycle;Signal;HPM_P1;HPM_P2
2023/05/04 00:00:41;;;;;;;1.50;1.10;;;10.10;97.50;;;;;;5094130;28;20486;-83
2023/05/04 00:03:08;;;;;;;1.50;1.20;;;10.10;96.90;;;;;;5084815;28;20472;-83
2023/05/04 00:05:35;;;;;;;1.50;1.10;;;10.10;97.90;;;;;;5090881;28;20456;-82
2023/05/04 00:08:02;;;;;;;1.50;1.10;;;10.00;98.10;;;;;;5071462;28;20478;-84
2023/05/04 00:10:29;;;;;;;1.47;1.10;;;10.00;97.80;;;;;;5088269;28;20957;-83
2023/05/04 00:12:56;;;;;;;1.47;1.10;;;10.00;97.90;;;;;;5083187;28;20481;-82
2023/05/04 00:15:24;;;;;;;1.50;1.10;;;10.00;98.20;;;;;;5094245;28;20484;-81
2023/05/04 00:17:51;;;;;;;1.50;1.30;;;9.90;97.90;;;;;;5073298;28;20840;-82
2023/05/04 00:20:18;;;;;;;1.50;1.13;;;9.90;98.20;;;;;;5090084;28;20452;-82
2023/05/04 00:22:45;;;;;;;1.50;1.30;;;9.90;98.20;;;;;;5077732;28;20473;-85
2023/05/04 00:25:11;;;;;;;1.50;1.20;;;9.80;98.20;;;;;;5091377;28;20839;-80
2023/05/04 00:27:38;;;;;;;1.50;1.20;;;9.80;98.20;;;;;;5078827;28;20484;-83
2023/05/04 00:30:06;;;;;;;1.50;1.20;;;9.80;98.20;;;;;;5094649;28;20454;-81
2023/05/04 00:32:34;;;;;;;1.50;1.20;;;9.80;98.20;;;;;;5079117;28;20480;-82
2023/05/04 00:35:01;;;;;;;1.47;1.10;;;9.70;98.20;;;;;;5091033;28;20461;-80
2023/05/04 00:37:28;;;;;;;1.50;1.20;;;9.70;98.20;;;;;;5078823;28;20476;-83
2023/05/04 00:39:55;;;;;;;1.50;1.10;;;9.70;98.20;;;;;;5088963;28;20467;-82
2023/05/04 00:42:21;;;;;;;1.50;1.20;;;9.70;98.20;;;;;;5085666;28;20923;-80
2023/05/04 00:44:48;;;;;;;1.50;1.10;;;9.60;98.20;;;;;;5089392;28;20465;-83
2023/05/04 00:47:15;;;;;;;1.47;1.10;;;9.50;98.20;;;;;;5081066;28;20472;-82
2023/05/04 00:49:43;;;;;;;1.50;1.10;;;9.50;98.20;;;;;;5087100;28;20463;-82
2023/05/04 00:52:13;;;;;;;1.50;1.23;;;9.50;98.20;;;;;;5086019;28;20480;-81
2023/05/04 00:54:41;;;;;;;1.50;1.20;;;9.50;98.20;;;;;;5096163;28;20488;-80
2023/05/04 00:57:08;;;;;;;1.50;1.10;;;9.40;98.20;;;;;;5093581;28;20473;-82
2023/05/04 00:59:35;;;;;;;1.50;1.10;;;9.40;98.20;;;;;;5087027;28;20498;-82
2023/05/04 01:02:01;;;;;;;1.47;1.10;;;9.40;98.20;;;;;;5081138;28;20481;-83
2023/05/04 01:04:28;;;;;;;1.50;1.20;;;9.40;98.20;;;;;;5086479;28;20973;-80
2023/05/04 01:07:06;;;;;;;1.50;1.20;;;9.40;98.20;;;;;;5082169;28;20477;-81
2023/05/04 01:09:43;;;;;;;1.50;1.10;;;9.40;98.20;;;;;;5084895;28;20826;-81
2023/05/04 01:12:17;;;;;;;1.50;1.20;;;9.30;98.20;;;;;;5080591;28;20472;-82
2023/05/04 01:14:46;;;;;;;1.50;1.20;;;9.30;98.20;;;;;;5089038;28;20467;-84
2023/05/04 01:17:14;;;;;;;1.50;1.20;;;9.20;98.20;;;;;;5079864;28;20470;-83
2023/05/04 01:19:41;;;;;;;1.43;1.10;;;9.20;98.20;;;;;;5090739;28;20464;-82
2023/05/04 01:22:09;;;;;;;1.50;1.20;;;9.20;98.20;;;;;;5073843;28;20481;-84
2023/05/04 01:24:36;;;;;;;1.50;1.20;;;9.20;98.20;;;;;;5095505;28;20465;-81
2023/05/04 01:27:05;;;;;;;1.50;1.20;;;9.20;98.20;;;;;;5085214;28;20492;-82
2023/05/04 01:29:38;;;;;;;1.50;1.20;;;9.20;98.20;;;;;;5089905;28;20461;-82
2023/05/04 01:32:07;;;;;;;1.50;1.20;;;9.20;98.20;;;;;;5080361;28;20821;-83
2023/05/04 01:34:35;;;;;;;1.47;1.10;;;9.20;98.20;;;;;;5086869;28;20465;-82
2023/05/04 01:37:02;;;;;;;1.50;1.10;;;9.20;98.20;;;;;;5087829;28;20851;-81
2023/05/04 01:39:30;;;;;;;1.50;1.10;;;9.20;98.20;;;;;;5094419;28;20458;-82
2023/05/04 01:41:57;;;;;;;1.50;1.20;;;9.10;98.20;;;;;;5078232;28;20499;-81
2023/05/04 01:44:24;;;;;;;1.50;1.30;;;9.10;98.20;;;;;;5085193;28;20456;-82
2023/05/04 01:46:51;;;;;;;1.50;1.30;;;9.10;98.20;;;;;;5087518;28;20481;-82
2023/05/04 01:49:18;;;;;;;1.50;1.20;;;9.10;98.20;;;;;;5094154;28;20453;-81
2023/05/04 01:51:45;;;;;;;1.50;1.10;;;9.10;98.20;;;;;;5087095;28;20944;-82
2023/05/04 01:54:12;;;;;;;1.50;1.20;;;9.10;98.20;;;;;;5083473;28;20507;-79
2023/05/04 01:56:41;;;;;;;1.50;1.10;;;9.10;98.20;;;;;;5086741;28;20563;-78
2023/05/04 01:59:08;;;;;;;1.50;1.30;;;9.10;98.20;;;;;;5091319;28;20446;-78
2023/05/04 02:01:35;;;;;;;1.50;1.20;;;9.10;98.20;;;;;;5085715;28;20513;-81
2023/05/04 02:04:02;;;;;;;1.47;1.20;;;9.10;98.20;;;;;;5088753;28;20473;-82
2023/05/04 02:06:29;;;;;;;1.50;1.20;;;9.00;98.20;;;;;;5084444;28;20479;-82
2023/05/04 02:08:56;;;;;;;1.50;1.10;;;9.00;98.20;;;;;;5093219;28;20568;-83
2023/05/04 02:11:22;;;;;;;1.50;1.20;;;9.00;98.20;;;;;;5084406;28;21034;-81
2023/05/04 02:13:51;;;;;;;1.50;1.20;;;9.00;98.20;;;;;;5092312;28;20481;-81
2023/05/04 02:16:17;;;;;;;1.50;1.30;;;9.00;98.20;;;;;;5084149;28;20882;-82
2023/05/04 02:18:45;;;;;;;1.50;1.20;;;9.00;98.20;;;;;;5090408;28;20459;-82
2023/05/04 02:21:12;;;;;;;1.50;1.20;;;8.90;98.20;;;;;;5086756;28;20480;-81
2023/05/04 02:23:41;;;;;;;1.50;1.10;;;8.90;98.20;;;;;;5082402;28;20492;-81
2023/05/04 02:26:08;;;;;;;1.50;1.20;;;8.90;98.20;;;;;;5084918;28;20484;-83
2023/05/04 02:28:35;;;;;;;1.50;1.30;;;8.90;98.20;;;;;;5085298;28;20488;-82
2023/05/04 02:31:03;;;;;;;1.50;1.30;;;8.90;98.20;;;;;;5084650;28;20461;-81
2023/05/04 02:33:30;;;;;;;1.47;1.10;;;8.90;98.20;;;;;;5087119;28;20813;-82
2023/05/04 02:35:56;;;;;;;1.50;1.10;;;8.90;98.20;;;;;;5076814;28;20460;-79
2023/05/04 02:38:23;;;;;;;1.50;1.20;;;8.90;98.20;;;;;;5089034;22;21980;-78
2023/05/04 02:40:50;;;;;;;1.50;1.20;;;8.90;98.20;;;;;;4982361;28;20549;-77
2023/05/04 02:43:17;;;;;;;1.43;1.20;;;9.00;98.20;;;;;;4992059;28;20461;-78
2023/05/04 02:45:44;;;;;;;1.50;1.20;;;9.00;98.20;;;;;;5004056;28;20452;-78
2023/05/04 02:48:12;;;;;;;1.50;1.20;;;8.90;98.20;;;;;;4996930;28;20575;-78
2023/05/04 02:50:39;;;;;;;1.47;1.10;;;9.00;98.20;;;;;;5002629;28;20732;-77
2023/05/04 02:53:06;;;;;;;1.47;1.20;;;9.00;98.20;;;;;;4992534;28;20480;-78
2023/05/04 02:55:33;;;;;;;1.47;1.10;;;9.00;98.20;;;;;;5006009;28;20469;-78
2023/05/04 02:58:00;;;;;;;1.50;1.30;;;9.10;98.20;;;;;;4988077;28;20500;-78
2023/05/04 03:00:26;;;;;;;1.50;1.10;;;9.10;98.20;;;;;;5003220;28;20461;-80
2023/05/04 03:02:53;;;;;;;1.50;1.10;;;9.10;98.20;;;;;;4997052;28;20559;-79
2023/05/04 03:05:22;;;;;;;1.50;1.20;;;9.10;98.20;;;;;;5006424;28;20552;-79
2023/05/04 03:07:49;;;;;;;1.50;1.10;;;9.20;98.20;;;;;;4994614;28;20484;-79
2023/05/04 03:10:16;;;;;;;1.50;1.10;;;9.20;98.20;;;;;;5010526;28;20476;-79
2023/05/04 03:12:43;;;;;;;1.50;1.20;;;9.20;98.20;;;;;;4994917;28;20477;-78
2023/05/04 03:15:10;;;;;;;1.50;1.10;;;9.20;98.20;;;;;;5005012;28;20472;-78
2023/05/04 03:17:37;;;;;;;1.50;1.13;;;9.20;98.20;;;;;;4988867;28;20516;-78
2023/05/04 03:20:05;;;;;;;1.50;1.10;;;9.20;98.20;;;;;;5003331;28;20480;-78
2023/05/04 03:22:33;;;;;;;1.50;1.20;;;9.20;98.20;;;;;;4988202;28;20482;-78
2023/05/04 03:25:03;;;;;;;1.50;1.10;;;9.20;98.20;;;;;;5008659;28;20464;-78
2023/05/04 03:27:30;;;;;;;1.50;1.20;;;9.10;98.20;;;;;;4991544;28;20544;-77
2023/05/04 03:29:57;;;;;;;1.50;1.20;;;9.10;98.20;;;;;;4998276;28;20480;-78
2023/05/04 03:32:25;;;;;;;1.50;1.20;;;9.10;98.20;;;;;;4991699;28;20480;-78
2023/05/04 03:34:52;;;;;;;1.47;1.10;;;9.10;98.20;;;;;;5006514;28;20461;-77
2023/05/04 03:37:18;;;;;;;1.47;1.17;;;9.00;98.20;;;;;;4998929;28;20484;-79
2023/05/04 03:39:47;;;;;;;1.50;1.13;;;9.10;98.20;;;;;;4995657;28;20484;-77
2023/05/04 03:42:14;;;;;;;1.50;1.30;;;9.10;98.20;;;;;;5033058;28;21064;-78
2023/05/04 03:44:41;;;;;;;1.50;1.20;;;9.10;98.20;;;;;;5006862;28;20471;-79
2023/05/04 03:47:08;;;;;;;1.50;1.30;;;9.00;98.20;;;;;;5042892;28;20492;-78
2023/05/04 03:49:36;;;;;;;1.50;1.20;;;9.00;98.20;;;;;;5014486;28;20595;-78
2023/05/04 03:52:02;;;;;;;1.50;1.10;;;9.00;98.20;;;;;;5031418;28;20480;-78
2023/05/04 03:54:29;;;;;;;1.50;1.10;;;9.00;98.20;;;;;;5023336;28;20473;-77
2023/05/04 03:57:06;;;;;;;1.50;1.20;;;9.10;98.20;;;;;;5005885;28;20553;-78
2023/05/04 03:59:36;;;;;;;1.50;1.30;;;9.10;98.20;;;;;;5005318;28;20567;-77
2023/05/04 04:02:05;;;;;;;1.50;1.20;;;9.20;98.20;;;;;;5025615;28;20472;-78
2023/05/04 04:04:32;;;;;;;1.50;1.20;;;9.20;98.20;;;;;;5018438;28;20953;-78
2023/05/04 04:06:58;;;;;;;1.47;1.20;;;9.20;98.20;;;;;;5029213;28;20488;-78
2023/05/04 04:09:33;;;;;;;1.47;1.10;;;9.20;98.20;;;;;;5019134;28;20492;-78
2023/05/04 04:12:02;;;;;;;1.47;1.10;;;9.30;98.20;;;;;;5028443;28;21003;-78
2023/05/04 04:14:29;;;;;;;1.47;1.20;;;9.30;98.20;;;;;;5020619;28;20543;-78
2023/05/04 04:16:55;;;;;;;1.50;1.27;;;9.30;98.20;;;;;;5028392;28;20566;-79
2023/05/04 04:19:26;;;;;;;1.50;1.20;;;9.30;98.20;;;;;;5023344;28;20477;-78
2023/05/04 04:21:53;;;;;;;1.50;1.20;;;9.30;98.20;;;;;;5002610;28;20555;-78
2023/05/04 04:24:20;;;;;;;1.50;1.20;;;9.30;98.20;;;;;;5014244;28;20496;-80
2023/05/04 04:26:56;;;;;;;1.50;1.30;;;9.30;98.20;;;;;;5023434;28;20472;-81
2023/05/04 04:29:41;;;;;;;1.50;1.30;;;9.30;98.20;;;;;;5028514;28;20493;-83
2023/05/04 04:32:09;;;;;;;1.50;1.20;;;9.30;98.20;;;;;;5028506;28;20516;-82
2023/05/04 04:34:51;;;;;;;1.47;1.20;;;9.30;98.20;;;;;;5021691;28;20457;-80
2023/05/04 04:37:33;;;;;;;1.50;1.20;;;9.30;98.20;;;;;;5047906;28;20728;-80
2023/05/04 04:40:19;;;;;;;1.47;1.10;;;9.30;98.20;;;;;;5001117;28;20575;-82
2023/05/04 04:42:46;;;;;;;1.50;1.20;;;9.30;98.20;;;;;;5064219;28;20565;-79
2023/05/04 04:45:16;;;;;;;1.50;1.20;;;9.30;98.20;;;;;;4988334;28;20879;-83
2023/05/04 04:47:43;;;;;;;1.50;1.20;;;9.40;98.20;;;;;;5056559;28;20584;-80
2023/05/04 04:50:11;;;;;;;1.43;1.20;;;9.40;98.20;;;;;;5001411;28;20481;-80
2023/05/04 04:52:46;;;;;;;1.47;1.10;;;9.40;98.20;;;;;;5059236;28;20508;-82
2023/05/04 04:55:22;;;;;;;1.50;1.17;;;9.50;98.20;;;;;;4991854;28;20495;-82
2023/05/04 04:57:49;;;;;;;1.47;1.10;;;9.50;98.20;;;;;;5003129;28;20971;-82
2023/05/04 05:00:27;;;;;;;1.50;1.20;;;9.50;98.20;;;;;;4996888;28;20524;-82
2023/05/04 05:02:57;;;;;;;1.50;1.20;;;9.60;98.20;;;;;;5069517;28;20468;-82
2023/05/04 05:05:24;;;;;;;1.50;1.20;;;9.60;98.20;;;;;;4991385;28;20563;-80
2023/05/04 05:10:25;;;;;;;1.50;1.20;;;9.70;98.20;;;;;;5050979;23;20499;-79
2023/05/04 05:13:15;;;;;;;1.50;1.10;;;9.80;98.20;;;;;;4989882;28;20479;-79
2023/05/04 05:15:44;;;;;;;1.50;1.13;;;9.90;98.20;;;;;;5031082;28;20456;-79
2023/05/04 05:18:16;;;;;;;1.47;1.20;;;10.10;98.20;;;;;;5017732;28;20697;-79
2023/05/04 05:20:50;;;;;;;1.50;1.20;;;10.30;98.20;;;;;;5022773;28;20449;-81
2023/05/04 05:23:34;;;;;;;1.50;1.30;;;10.50;98.00;;;;;;4987292;28;20476;-79
2023/05/04 05:26:01;;;;;;;1.47;1.10;;;10.70;98.20;;;;;;4997678;28;20471;-78
2023/05/04 05:28:58;;;;;;;1.50;1.30;;;10.80;97.10;;;;;;5006925;28;21004;-80
2023/05/04 05:31:51;;;;;;;1.50;1.10;;;11.00;96.40;;;;;;5004162;28;20472;-79
2023/05/04 05:34:24;;;;;;;1.43;1.00;;;11.20;96.00;;;;;;5014591;28;20471;-81
2023/05/04 05:37:10;;;;;;;;;;;;;;;;;;;;;
2023/05/04 05:39:40;;;;;;;1.47;1.10;;;11.50;95.50;;;;;;5013330;28;20472;-78
2023/05/04 05:42:08;;;;;;;1.40;1.00;;;11.70;95.00;;;;;;5010894;28;20810;-80
2023/05/04 05:44:36;;;;;;;1.50;1.00;;;11.80;94.50;;;;;;5016662;28;20867;-80
2023/05/04 05:47:04;;;;;;;1.43;1.10;;;11.80;94.20;;;;;;5007884;28;20504;-81
2023/05/04 05:49:31;;;;;;;1.50;1.10;;;12.00;93.90;;;;;;5011486;28;20485;-78
2023/05/04 05:51:58;;;;;;;1.50;1.10;;;12.00;93.00;;;;;;5003139;28;20490;-79
2023/05/04 05:54:26;;;;;;;1.50;1.10;;;12.10;93.30;;;;;;5011560;28;20827;-79
2023/05/04 05:56:53;;;;;;;1.47;1.00;;;12.20;93.20;;;;;;5000500;28;20508;-80
2023/05/04 05:59:20;;;;;;;1.50;1.10;;;12.30;93.20;;;;;;5010590;28;20488;-80
2023/05/04 06:01:50;;;;;;;1.50;1.00;;;12.30;93.00;;;;;;5002499;28;20529;-79
2023/05/04 06:04:19;;;;;;;1.47;1.00;;;12.50;93.30;;;;;;5012725;28;20464;-79
2023/05/04 06:06:55;;;;;;;1.43;1.00;;;12.60;93.00;;;;;;4996563;28;20488;-79
2023/05/04 06:09:22;;;;;;;1.47;1.00;;;12.80;92.00;;;;;;5013885;28;20492;-80
2023/05/04 06:11:58;;;;;;;1.50;1.00;;;13.00;92.10;;;;;;5003836;28;20480;-79
2023/05/04 06:14:33;;;;;;;1.50;1.00;;;13.20;91.60;;;;;;5010517;28;20456;-78
2023/05/04 06:17:00;;;;;;;1.50;1.10;;;13.30;90.40;;;;;;5003468;28;20540;-78
2023/05/04 06:19:43;;;;;;;1.50;1.00;;;13.40;90.20;;;;;;5008722;28;20483;-79
2023/05/04 06:22:09;;;;;;;1.50;1.00;;;13.40;90.30;;;;;;5004235;28;20996;-79
2023/05/04 06:24:36;;;;;;;1.50;1.00;;;13.50;90.20;;;;;;5005522;28;21195;-79
2023/05/04 06:27:03;;;;;;;1.50;1.13;;;13.70;89.80;;;;;;5001678;28;20483;-79
2023/05/04 06:29:30;;;;;;;1.70;1.30;;;13.90;88.00;;;;;;5009385;28;20957;-78
2023/05/04 06:32:24;;;;;;;1.47;1.00;;;14.10;87.20;;;;;;5002886;28;20891;-78
2023/05/04 06:34:54;;;;;;;1.40;1.00;;;14.20;87.60;;;;;;5011039;28;20511;-80
2023/05/04 06:37:22;;;;;;;1.47;0.90;;;14.20;86.70;;;;;;5003826;28;20468;-81
2023/05/04 06:39:52;;;;;;;1.50;1.00;;;14.30;87.30;;;;;;5008841;28;20480;-79
2023/05/04 06:42:18;;;;;;;1.50;1.10;;;14.30;87.10;;;;;;4993954;28;21063;-78
2023/05/04 06:44:45;;;;;;;1.50;1.20;;;14.40;87.90;;;;;;5008118;28;20468;-78
2023/05/04 06:47:12;;;;;;;1.50;1.00;;;14.60;87.10;;;;;;4991125;28;20579;-78
2023/05/04 06:49:39;;;;;;;1.47;1.00;;;14.70;86.40;;;;;;5032553;22;20506;-79
2023/05/04 06:52:19;;;;;;;1.47;1.00;;;14.80;84.90;;;;;;4983903;28;20495;-78
2023/05/04 06:54:52;;;;;;;1.50;0.90;;;14.90;85.00;;;;;;5002188;28;20583;-78
2023/05/04 06:57:19;;;;;;;1.47;0.90;;;15.00;84.80;;;;;;4987422;28;20473;-79
2023/05/04 06:59:46;;;;;;;1.50;1.10;;;15.10;83.80;;;;;;5013781;28;20490;-79
2023/05/04 07:02:13;;;;;;;1.47;0.90;;;15.30;84.10;;;;;;5003879;28;20472;-78
2023/05/04 07:04:40;;;;;;;1.50;0.90;;;15.50;82.30;;;;;;5006463;28;20475;-78
2023/05/04 07:07:07;;;;;;;1.50;1.10;;;15.60;81.80;;;;;;5011021;28;20486;-77
2023/05/04 07:09:35;;;;;;;1.57;1.40;;;15.70;81.90;;;;;;5008238;28;20914;-79
2023/05/04 07:14:44;;;;;;;1.50;0.90;;;16.10;81.00;;;;;;5005150;28;20474;-78
2023/05/04 07:17:12;;;;;;;1.50;0.90;;;16.30;80.70;;;;;;5005058;28;20490;-79
2023/05/04 07:19:40;;;;;;;1.47;1.00;;;16.50;80.00;;;;;;5021904;28;20484;-78
2023/05/04 07:24:49;;;;;;;1.50;1.00;;;16.60;79.20;;;;;;5021909;28;20532;-78
2023/05/04 07:27:16;;;;;;;1.50;1.00;;;16.80;79.40;;;;;;5062535;27;20543;-79
2023/05/04 07:29:43;;;;;;;1.47;1.00;;;16.90;79.50;;;;;;5026005;28;20985;-79
2023/05/04 07:32:10;;;;;;;1.50;1.00;;;16.90;78.60;;;;;;4999835;28;20854;-78
2023/05/04 07:34:40;;;;;;;1.50;1.00;;;16.80;78.90;;;;;;5014801;28;20465;-79
2023/05/04 07:37:09;;;;;;;1.80;1.57;;;16.90;79.30;;;;;;4988221;28;20477;-78
2023/05/04 07:39:37;;;;;;;1.50;1.00;;;17.10;79.00;;;;;;5005937;28;20486;-77
2023/05/04 07:42:10;;;;;;;1.47;0.90;;;17.20;79.50;;;;;;4995407;28;20488;-78
2023/05/04 07:44:37;;;;;;;1.50;1.00;;;17.40;79.00;;;;;;5012014;28;20754;-80
2023/05/04 07:47:04;;;;;;;1.50;1.00;;;17.60;77.80;;;;;;5058392;27;21024;-77
2023/05/04 07:49:31;;;;;;;1.47;0.90;;;17.60;78.20;;;;;;5036217;28;20559;-76
2023/05/04 07:51:58;;;;;;;1.50;0.97;;;17.70;77.90;;;;;;5010277;28;20508;-76
2023/05/04 07:54:28;;;;;;;1.50;0.90;;;17.70;77.10;;;;;;5017084;28;20471;-78
2023/05/04 07:56:58;;;;;;;1.43;0.90;;;17.70;76.40;;;;;;5004560;28;20477;-78
2023/05/04 07:59:26;;;;;;;1.43;0.90;;;17.70;77.50;;;;;;5017749;28;20476;-77
2023/05/04 08:01:53;;;;;;;1.43;0.90;;;17.80;77.20;;;;;;5051365;28;20483;-77
2023/05/04 08:04:20;;;;;;;1.50;1.00;;;18.00;76.50;;;;;;5047257;28;20547;-77
2023/05/04 08:06:48;;;;;;;1.47;0.90;;;18.20;76.10;;;;;;5002513;28;20979;-78
2023/05/04 08:09:15;;;;;;;1.50;1.20;;;18.40;75.80;;;;;;5010233;28;20967;-77
2023/05/04 08:11:42;;;;;;;1.70;1.50;;;18.40;75.90;;;;;;5036774;28;20483;-78
2023/05/04 08:14:09;;;;;;;1.43;0.90;;;18.60;75.80;;;;;;5053066;28;20460;-77
2023/05/04 08:16:38;;;;;;;1.50;1.00;;;18.70;76.10;;;;;;5006894;28;20481;-78
2023/05/04 08:19:06;;;;;;;1.50;0.90;;;18.80;75.50;;;;;;5010316;28;20583;-77
2023/05/04 08:21:35;;;;;;;1.50;1.20;;;18.80;75.30;;;;;;5000172;28;20962;-79
2023/05/04 08:24:03;;;;;;;1.47;0.90;;;18.80;75.40;;;;;;5034099;28;20460;-78
2023/05/04 08:26:30;;;;;;;1.50;0.90;;;18.80;75.60;;;;;;5003778;28;20915;-79
2023/05/04 08:29:06;;;;;;;1.43;0.90;;;18.90;75.80;;;;;;5020679;28;20480;-78
2023/05/04 08:31:33;;;;;;;1.47;0.90;;;19.10;75.00;;;;;;5034197;28;20554;-79
2023/05/04 08:34:02;;;;;;;1.43;0.90;;;19.20;74.80;;;;;;5060786;28;20460;-78
2023/05/04 08:36:29;;;;;;;1.50;1.00;;;19.40;74.70;;;;;;5028267;28;20507;-78
2023/05/04 08:38:56;;;;;;;1.47;0.90;;;19.40;74.60;;;;;;5061027;28;20488;-79
2023/05/04 08:41:23;;;;;;;1.50;1.00;;;19.60;74.50;;;;;;5021051;28;20530;-77
2023/05/04 08:43:50;;;;;;;1.50;0.90;;;19.80;74.70;;;;;;5060907;28;20470;-78
2023/05/04 08:46:17;;;;;;;1.47;0.90;;;19.90;73.60;;;;;;5018045;28;20874;-78
2023/05/04 08:48:45;;;;;;;1.50;0.90;;;19.70;73.80;;;;;;5070477;28;20753;-77
2023/05/04 08:51:14;;;;;;;1.50;1.00;;;19.80;74.30;;;;;;5025878;27;20479;-79
2023/05/04 08:53:45;;;;;;;1.50;0.90;;;19.90;74.10;;;;;;5076111;27;20462;-79
2023/05/04 08:56:17;;;;;;;1.43;0.90;;;20.00;74.20;;;;;;5001466;28;20485;-78
2023/05/04 08:58:51;;;;;;;1.47;0.90;;;20.10;73.80;;;;;;5015439;28;20480;-79
2023/05/04 09:01:21;;;;;;;1.47;1.00;;;20.10;74.20;;;;;;5020581;27;20475;-77
2023/05/04 09:03:50;;;;;;;1.50;0.90;;;20.20;73.90;;;;;;5067263;27;20517;-78
2023/05/04 09:06:19;;;;;;;1.50;0.90;;;20.40;74.10;;;;;;4993332;28;20626;-81
2023/05/04 09:08:45;;;;;;;1.50;0.90;;;20.70;73.30;;;;;;5004332;28;20563;-80
2023/05/04 09:11:15;;;;;;;1.50;0.90;;;20.80;73.30;;;;;;5003227;28;20490;-78
2023/05/04 09:13:42;;;;;;;1.43;0.90;;;20.80;72.70;;;;;;5018970;28;20508;-78
2023/05/04 09:16:09;;;;;;;1.47;0.90;;;20.90;73.00;;;;;;4998310;28;20487;-78
2023/05/04 09:18:37;;;;;;;1.50;0.90;;;21.10;73.00;;;;;;5025267;28;20492;-79
2023/05/04 09:21:04;;;;;;;1.50;0.90;;;21.20;73.00;;;;;;4999932;28;20465;-80
2023/05/04 09:23:33;;;;;;;1.50;0.90;;;21.20;73.30;;;;;;5021351;28;20472;-79
2023/05/04 09:26:00;;;;;;;1.50;1.00;;;21.30;73.20;;;;;;4997259;28;20558;-78
2023/05/04 09:28:38;;;;;;;1.43;0.90;;;21.40;72.80;;;;;;5028712;28;20789;-78
2023/05/04 09:31:06;;;;;;;1.40;0.90;;;21.50;72.70;;;;;;4995654;28;20515;-79
2023/05/04 09:33:33;;;;;;;1.47;0.90;;;21.60;72.60;;;;;;5008169;28;20467;-78
2023/05/04 09:36:12;;;;;;;1.50;0.90;;;21.70;72.20;;;;;;5012955;28;20871;-79
2023/05/04 09:38:40;;;;;;;1.50;0.90;;;21.90;72.20;;;;;;5078425;27;20506;-77
2023/05/04 09:41:07;;;;;;;1.43;0.90;;;22.00;71.60;;;;;;5016177;27;20461;-81
2023/05/04 09:43:39;;;;;;;1.50;0.90;;;22.20;71.50;;;;;;5081163;27;20466;-79
2023/05/04 09:46:07;;;;;;;1.50;1.10;;;22.40;70.70;;;;;;4996852;28;20826;-78
2023/05/04 09:48:35;;;;;;;1.50;0.90;;;22.50;70.80;;;;;;5022959;28;20492;-78
2023/05/04 09:51:05;;;;;;;1.43;0.80;;;22.80;71.00;;;;;;5000020;28;20556;-80
2023/05/04 09:53:34;;;;;;;1.50;0.90;;;23.00;69.50;;;;;;5029412;28;20960;-81
2023/05/04 09:56:10;;;;;;;1.50;0.90;;;22.90;69.10;;;;;;5009036;28;20544;-79
2023/05/04 09:58:37;;;;;;;1.47;0.90;;;22.80;69.00;;;;;;5022036;28;20479;-79
2023/05/04 10:01:04;;;;;;;1.47;0.87;;;22.80;69.30;;;;;;5018923;28;20465;-78
2023/05/04 10:03:32;;;;;;;1.50;1.00;;;22.80;68.50;;;;;;5081833;27;20460;-79
2023/05/04 10:05:59;;;;;;;2.33;2.00;;;22.60;69.00;;;;;;5000275;28;20469;-78
2023/05/04 10:08:30;;;;;;;1.47;0.97;;;22.70;68.50;;;;;;5017374;28;20477;-78
2023/05/04 10:10:59;;;;;;;1.50;0.90;;;22.90;69.30;;;;;;5004484;28;20488;-77
2023/05/04 10:13:28;;;;;;;1.40;0.90;;;23.10;69.50;;;;;;5083532;27;20453;-77
2023/05/04 10:16:08;;;;;;;1.50;0.90;;;23.50;68.20;;;;;;5006069;28;21045;-78
2023/05/04 10:18:52;;;;;;;1.47;0.90;;;23.80;67.40;;;;;;5074024;27;20567;-78
2023/05/04 10:21:29;;;;;;;1.43;0.90;;;23.70;67.00;;;;;;5023555;27;20482;-77
2023/05/04 10:24:26;;;;;;;1.43;0.90;;;23.70;67.70;;;;;;5063045;27;20460;-77
2023/05/04 10:27:15;;;;;;;1.43;0.87;;;23.90;67.50;;;;;;4998010;28;20492;-78
2023/05/04 10:29:48;;;;;;;1.47;0.90;;;23.70;66.20;;;;;;5022741;28;20487;-82
2023/05/04 10:32:38;;;;;;;1.43;0.80;;;23.80;66.30;;;;;;5066760;27;20511;-79
2023/05/04 10:35:08;;;;;;;1.40;0.90;;;23.60;65.90;;;;;;5027757;28;20471;-81
2023/05/04 10:37:37;;;;;;;1.40;0.90;;;23.70;65.70;;;;;;5084275;27;20543;-79
2023/05/04 10:40:06;;;;;;;1.50;1.00;;;23.80;65.70;;;;;;5042738;28;20487;-81
2023/05/04 10:42:41;;;;;;;1.40;0.80;;;24.00;64.90;;;;;;5077724;27;20491;-80
2023/05/04 10:45:14;;;;;;;1.40;0.80;;;24.00;64.80;;;;;;5015525;28;20496;-79
2023/05/04 10:47:41;;;;;;;1.40;0.90;;;24.10;63.90;;;;;;4996365;28;20575;-80
2023/05/04 10:50:13;;;;;;;1.50;0.80;;;24.10;64.30;;;;;;5012383;28;20503;-78
2023/05/04 10:52:46;;;;;;;1.43;0.80;;;24.10;64.80;;;;;;5001695;28;20755;-79
2023/05/04 10:55:14;;;;;;;1.50;0.80;;;24.20;63.80;;;;;;5017189;28;20460;-76
2023/05/04 10:57:50;;;;;;;1.50;0.90;;;24.30;63.40;;;;;;5074762;27;20536;-78
2023/05/04 11:00:19;;;;;;;1.40;1.00;;;24.50;62.50;;;;;;5016161;28;20516;-78
2023/05/04 11:02:47;;;;;;;1.47;0.80;;;24.50;62.10;;;;;;4999693;28;20556;-80
2023/05/04 11:05:17;;;;;;;1.40;0.90;;;24.70;62.10;;;;;;5023777;28;20456;-79
2023/05/04 11:07:44;;;;;;;1.40;0.80;;;24.80;63.00;;;;;;5006074;28;20985;-80
2023/05/04 11:10:21;;;;;;;1.70;1.33;;;24.80;60.50;;;;;;5017708;28;20551;-78
2023/05/04 11:12:48;;;;;;;1.40;0.80;;;24.90;61.10;;;;;;5082620;27;20475;-79
2023/05/04 11:15:15;;;;;;;1.40;0.90;;;25.00;61.30;;;;;;5033040;28;20538;-79
2023/05/04 11:17:47;;;;;;;1.40;0.90;;;25.20;60.20;;;;;;5002240;28;20480;-80
2023/05/04 11:20:22;;;;;;;1.43;0.90;;;25.30;60.70;;;;;;5015477;28;21024;-78
2023/05/04 11:22:49;;;;;;;1.43;0.80;;;25.60;59.90;;;;;;4992505;28;20486;-79
2023/05/04 11:25:16;;;;;;;1.40;0.80;;;25.50;59.30;;;;;;5008078;28;20575;-79
2023/05/04 11:27:44;;;;;;;1.40;0.83;;;25.30;58.90;;;;;;4990964;28;20548;-82
2023/05/04 11:30:12;;;;;;;1.50;0.80;;;25.30;59.60;;;;;;5012763;28;20537;-78
2023/05/04 11:32:41;;;;;;;1.40;0.80;;;25.30;57.40;;;;;;5000923;28;20488;-79
2023/05/04 11:35:15;;;;;;;1.47;0.93;;;25.20;58.40;;;;;;5017282;28;20516;-79
2023/05/04 11:37:43;;;;;;;1.43;0.90;;;25.40;59.30;;;;;;5007954;28;20476;-79
2023/05/04 11:40:12;;;;;;;1.47;0.90;;;25.40;58.50;;;;;;5007530;28;20515;-79
2023/05/04 11:42:40;;;;;;;1.40;0.80;;;25.60;59.20;;;;;;4992272;28;20529;-79
2023/05/04 11:45:10;;;;;;;1.47;0.90;;;25.60;57.10;;;;;;5019199;28;20698;-80
2023/05/04 11:47:39;;;;;;;1.50;0.90;;;25.60;57.80;;;;;;4990025;28;20598;-80
2023/05/04 11:50:09;;;;;;;1.40;0.80;;;25.50;56.50;;;;;;5033859;28;20521;-78
2023/05/04 11:52:39;;;;;;;1.50;0.80;;;25.50;56.60;;;;;;5074252;28;20582;-78
2023/05/04 11:55:08;;;;;;;1.47;0.80;;;25.60;57.10;;;;;;5017466;28;20456;-79
2023/05/04 11:57:36;;;;;;;1.43;0.80;;;25.80;56.80;;;;;;4996015;28;20522;-79
2023/05/04 12:00:04;;;;;;;1.47;0.90;;;26.00;55.70;;;;;;5020610;28;20540;-79
2023/05/04 12:02:31;;;;;;;2.53;2.33;;;26.10;56.80;;;;;;4994160;28;20480;-78
2023/05/04 12:04:58;;;;;;;1.43;0.90;;;26.10;55.40;;;;;;5009990;28;20471;-79
2023/05/04 12:07:25;;;;;;;1.50;0.90;;;26.30;55.80;;;;;;5001893;28;20554;-77
2023/05/04 12:09:54;;;;;;;1.47;0.80;;;26.20;54.00;;;;;;5014257;28;20487;-77
2023/05/04 12:12:21;;;;;;;1.47;0.90;;;26.30;55.80;;;;;;5060978;28;21036;-78
2023/05/04 12:14:49;;;;;;;1.50;1.00;;;26.40;55.50;;;;;;5029036;28;20970;-78
2023/05/04 12:17:15;;;;;;;1.47;0.80;;;26.30;55.30;;;;;;5054924;28;20475;-78
2023/05/04 12:19:54;;;;;;;1.57;1.07;;;26.30;56.00;;;;;;5039850;28;20574;-79
2023/05/04 12:22:28;;;;;;;1.43;0.80;;;26.50;54.70;;;;;;4997231;28;20484;-79
2023/05/04 12:24:58;;;;;;;1.43;0.80;;;26.40;54.20;;;;;;5009514;28;20462;-80
2023/05/04 12:27:24;;;;;;;1.47;0.80;;;26.60;54.70;;;;;;5070814;27;20508;-80
2023/05/04 12:29:51;;;;;;;1.50;0.80;;;26.70;54.70;;;;;;5021960;27;20484;-78
2023/05/04 12:32:19;;;;;;;1.60;1.20;;;26.90;54.60;;;;;;5010163;28;21019;-78
2023/05/04 12:34:46;;;;;;;1.43;0.80;;;26.90;54.20;;;;;;5012011;28;20540;-78
2023/05/04 12:37:13;;;;;;;1.47;0.90;;;26.80;53.60;;;;;;4999281;28;20997;-79
2023/05/04 12:39:40;;;;;;;1.43;0.87;;;26.70;54.90;;;;;;5015526;28;20495;-78
2023/05/04 12:42:09;;;;;;;1.43;0.80;;;26.90;54.30;;;;;;5056114;27;20600;-77
2023/05/04 12:44:35;;;;;;;1.43;0.80;;;27.00;53.40;;;;;;5032318;28;20475;-79
2023/05/04 12:47:02;;;;;;;1.50;0.90;;;27.00;54.40;;;;;;5058761;27;20610;-77
2023/05/04 12:49:29;;;;;;;1.40;0.90;;;26.90;53.90;;;;;;5032869;27;20487;-78
2023/05/04 12:51:57;;;;;;;1.43;0.80;;;27.00;53.80;;;;;;5048917;27;20474;-79
2023/05/04 12:54:24;;;;;;;1.50;0.80;;;27.20;54.30;;;;;;5066155;27;20468;-80
2023/05/04 12:56:52;;;;;;;1.40;0.80;;;27.00;53.10;;;;;;5039022;27;20481;-79
2023/05/04 12:59:21;;;;;;;1.50;1.00;;;27.20;53.50;;;;;;5056653;27;20483;-77
2023/05/04 13:01:48;;;;;;;2.53;1.20;;;27.20;52.80;;;;;;4998589;28;21004;-79
2023/05/04 13:04:15;;;;;;;1.50;1.10;;;27.00;53.80;;;;;;5028913;28;20846;-81
2023/05/04 13:06:42;;;;;;;1.47;0.80;;;27.30;55.50;;;;;;5013552;28;20500;-82
2023/05/04 13:09:09;;;;;;;1.40;0.80;;;27.60;53.80;;;;;;5030381;28;20491;-80
2023/05/04 13:11:36;;;;;;;1.50;0.90;;;27.60;52.90;;;;;;5045579;27;20547;-80